Ithaca, NY

4:44 PM EDT on August 04, 2015 (GMT -0400)
Ecovillage at Ithaca | | Change Station
CLOSE
Current Station
Personal Weather Station
Location: Ithaca, NY
Elevation: 1102 ft
Nearby Weather Stations

Elev 1102 ft 42.44 °N, 76.54 °W | Updated 11 seconds ago

Mostly Cloudy
Mostly Cloudy
75.0 °F
Feels Like 77 °F
N
1.0
Wind Variable Wind from NW
Gusts 10.0 mph

Today
High -- | Low -- °F
--% Chance of Precip.
Yesterday
High -- | Low -- °F
Precip. -- in
6:01 AM 8:22 PM
Waning Gibbous, 74% visible
Pressure 29.91 in
Visibility 10.0 miles
Clouds Scattered Clouds 4000 ft
Mostly Cloudy 10000 ft
Heat Index 77 °F
Dew Point 61 °F
Humidity 61%
Rainfall 0.00 in
Snow Depth Not available.
UV 4 out of 12
Pollen 4.80 out of 12
Air Quality Not available.
Flu Activity Not available.
METAR KITH 041956Z VRB04KT 10SM SCT040 BKN100 24/16 A2993 RMK AO2 T02380161 SLP129

More Conditions Fewer Conditions

Pressure 29.91 in
Visibility 10.0 miles
Clouds Scattered Clouds 4000 ft
Mostly Cloudy 10000 ft
Heat Index 77 °F
Dew Point 61 °F
Humidity 61%
Rainfall 0.00 in
Snow Depth Not available.
UV 4 out of 12
Pollen 4.80 out of 12
Air Quality Not available.
Flu Activity Not available.
METAR KITH 041956Z VRB04KT 10SM SCT040 BKN100 24/16 A2993 RMK AO2 T02380161 SLP129

More Conditions Fewer Conditions

10-Day Weather Forecast

×

Almanac

Astronomy

Aug. 04, 2015 Rise Set
Actual Time
Civil Twilight
Nautical Twilight
Astronomical Twilight
Moon
Length of Visible Light
Length of Day
Tomorrow will be .
, % of the Moon is Illuminated

Today's Extremes

State Highs State Lows

Community

WunderPhotos

Upload Photos

1,843,974 photos uploaded!

WunderBlogs® & News

Nearby

Air Quality

  Air Quality AQ Index Pollutant
Not available.

Snow Depth

Station Depth Elevation

Earthquake Activity

City Distance Mag. Time & Date
Minimum magnitude displayed is 2.5.

Coastal Water Temperatures

Place Temperature

Stations

Nearby Weather Stations

Station Location Temp. Windchill Dew Point Humidity Wind Precip. Elev Updated Type